Time;durP1;ratioP1;P1;durP2;ratioP2;P2;SDS_P1;SDS_P2;PMS_P1;PMS_P2;Temp;Humidity;BMP_temperature;BMP_pressure;BME280_temperature;BME280_humidity;BME280_pressure;Samples;Min_cycle;Max_cycle;Signal;HPM_P1;HPM_P2
2023/09/20 00:00:52;;;;;;;12.10;4.22;;;;;;;;;;4921822;29;20035;-84
2023/09/20 00:03:19;;;;;;;11.38;4.63;;;;;;;;;;4922100;29;20055;-82
2023/09/20 00:05:47;;;;;;;11.13;4.57;;;;;;;;;;4912221;29;20488;-82
2023/09/20 00:08:14;;;;;;;11.68;4.72;;;;;;;;;;4903678;29;20075;-82
2023/09/20 00:10:40;;;;;;;8.30;4.13;;;;;;;;;;4919541;29;20055;-83
2023/09/20 00:13:09;;;;;;;13.93;4.88;;;;;;;;;;4910651;29;20341;-83
2023/09/20 00:15:35;;;;;;;12.43;4.60;;;;;;;;;;4918542;29;20567;-82
2023/09/20 00:18:01;;;;;;;10.43;4.68;;;;;;;;;;4920694;29;20044;-84
2023/09/20 00:20:27;;;;;;;13.70;4.88;;;;;;;;;;4918777;29;20047;-83
2023/09/20 00:22:53;;;;;;;13.90;4.70;;;;;;;;;;4920000;29;20043;-83
2023/09/20 00:25:20;;;;;;;12.77;4.75;;;;;;;;;;4916040;29;20054;-83
2023/09/20 00:27:46;;;;;;;13.10;4.72;;;;;;;;;;4935624;29;20902;-83
2023/09/20 00:30:17;;;;;;;13.52;4.60;;;;;;;;;;4912468;29;20159;-83
2023/09/20 00:32:44;;;;;;;13.45;4.50;;;;;;;;;;4913018;29;20047;-83
2023/09/20 00:35:11;;;;;;;10.57;4.82;;;;;;;;;;4894146;29;20572;-83
2023/09/20 00:37:46;;;;;;;13.18;4.93;;;;;;;;;;4919422;29;20098;-82
2023/09/20 00:40:17;;;;;;;14.98;4.88;;;;;;;;;;4906643;29;20047;-83
2023/09/20 00:42:47;;;;;;;14.73;4.90;;;;;;;;;;4940760;29;20081;-84
2023/09/20 00:45:15;;;;;;;15.82;4.75;;;;;;;;;;4918305;29;20118;-83
2023/09/20 00:47:44;;;;;;;12.23;4.55;;;;;;;;;;4936133;29;20048;-83
2023/09/20 00:50:14;;;;;;;11.27;4.40;;;;;;;;;;4916371;29;20098;-83
2023/09/20 00:52:41;;;;;;;16.40;4.07;;;;;;;;;;4912845;29;20399;-83
2023/09/20 00:55:15;;;;;;;14.43;4.40;;;;;;;;;;4916309;29;20059;-84
2023/09/20 00:57:41;;;;;;;14.15;4.60;;;;;;;;;;4934014;29;20066;-84
2023/09/20 01:00:19;;;;;;;14.90;4.55;;;;;;;;;;4904778;29;20103;-84
2023/09/20 01:02:46;;;;;;;13.70;4.07;;;;;;;;;;4921214;29;20055;-83
2023/09/20 01:05:12;;;;;;;13.75;4.40;;;;;;;;;;4911296;29;20118;-83
2023/09/20 01:07:42;;;;;;;15.35;5.00;;;;;;;;;;4911348;29;20146;-83
2023/09/20 01:10:08;;;;;;;12.23;4.35;;;;;;;;;;4916930;29;20063;-83
2023/09/20 01:12:34;;;;;;;13.75;4.57;;;;;;;;;;4913792;29;20043;-83
2023/09/20 01:15:00;;;;;;;13.43;4.30;;;;;;;;;;4910087;29;20039;-83
2023/09/20 01:17:26;;;;;;;15.80;4.47;;;;;;;;;;4908072;29;20131;-84
2023/09/20 01:19:52;;;;;;;12.40;4.20;;;;;;;;;;4918279;29;20051;-83
2023/09/20 01:22:19;;;;;;;16.08;4.15;;;;;;;;;;4923334;29;20086;-83
2023/09/20 01:24:45;;;;;;;14.93;3.67;;;;;;;;;;4936582;29;20296;-83
2023/09/20 01:27:13;;;;;;;14.13;4.15;;;;;;;;;;4899141;29;20301;-83
2023/09/20 01:29:39;;;;;;;13.90;4.38;;;;;;;;;;4910484;29;20039;-83
2023/09/20 01:32:05;;;;;;;12.27;4.15;;;;;;;;;;4916858;29;20058;-84
2023/09/20 01:34:31;;;;;;;11.27;4.47;;;;;;;;;;4922953;29;20381;-83
2023/09/20 01:36:58;;;;;;;10.80;3.58;;;;;;;;;;4923409;29;20055;-83
2023/09/20 01:39:24;;;;;;;13.77;3.85;;;;;;;;;;4911887;29;20502;-83
2023/09/20 01:41:50;;;;;;;14.10;4.25;;;;;;;;;;4912033;29;20036;-84
2023/09/20 01:44:16;;;;;;;14.55;3.80;;;;;;;;;;4915072;29;20050;-83
2023/09/20 01:46:43;;;;;;;9.95;3.58;;;;;;;;;;4940279;29;20073;-84
2023/09/20 01:49:10;;;;;;;13.05;3.63;;;;;;;;;;4915696;29;20070;-84
2023/09/20 01:51:36;;;;;;;10.77;3.58;;;;;;;;;;4898484;29;20146;-84
2023/09/20 01:54:03;;;;;;;15.73;4.03;;;;;;;;;;4920364;29;20051;-85
2023/09/20 01:56:30;;;;;;;10.73;3.75;;;;;;;;;;4912386;29;20060;-84
2023/09/20 01:58:56;;;;;;;14.63;3.83;;;;;;;;;;4910583;29;20043;-85
2023/09/20 02:01:22;;;;;;;12.38;3.83;;;;;;;;;;4909689;29;20401;-84
2023/09/20 02:03:48;;;;;;;10.85;3.75;;;;;;;;;;4894782;29;20498;-83
2023/09/20 02:06:15;;;;;;;11.27;3.55;;;;;;;;;;4913817;29;21437;-84
2023/09/20 02:08:41;;;;;;;9.30;3.78;;;;;;;;;;4915485;29;20051;-83
2023/09/20 02:11:08;;;;;;;11.52;3.45;;;;;;;;;;4920502;29;20062;-86
2023/09/20 02:13:34;;;;;;;11.43;3.53;;;;;;;;;;4913337;29;20047;-85
2023/09/20 02:16:00;;;;;;;10.20;3.47;;;;;;;;;;4915557;29;20106;-85
2023/09/20 02:18:26;;;;;;;13.15;3.78;;;;;;;;;;4916596;29;20617;-85
2023/09/20 02:20:52;;;;;;;12.60;3.50;;;;;;;;;;4908072;29;20058;-84
2023/09/20 02:23:18;;;;;;;11.05;4.00;;;;;;;;;;4921372;29;20909;-86
2023/09/20 02:25:45;;;;;;;9.98;3.30;;;;;;;;;;4931598;29;20051;-84
2023/09/20 02:28:11;;;;;;;13.23;3.60;;;;;;;;;;4904063;29;20901;-85
2023/09/20 02:30:37;;;;;;;11.15;3.50;;;;;;;;;;4905819;29;20051;-86
2023/09/20 02:33:05;;;;;;;7.90;3.00;;;;;;;;;;4901034;29;20084;-85
2023/09/20 02:35:32;;;;;;;15.00;3.60;;;;;;;;;;4910405;29;20500;-83
2023/09/20 02:37:59;;;;;;;15.63;3.80;;;;;;;;;;4937175;29;20508;-85
2023/09/20 02:40:27;;;;;;;7.45;3.13;;;;;;;;;;4911298;29;20062;-85
2023/09/20 02:42:54;;;;;;;13.13;3.60;;;;;;;;;;4909400;29;20064;-84
2023/09/20 02:45:20;;;;;;;10.45;3.55;;;;;;;;;;4909980;29;20173;-85
2023/09/20 02:47:47;;;;;;;7.60;2.92;;;;;;;;;;4916249;29;20134;-85
2023/09/20 02:50:16;;;;;;;10.63;3.10;;;;;;;;;;4917406;29;20393;-85
2023/09/20 02:52:43;;;;;;;7.85;2.83;;;;;;;;;;4922781;28;20052;-85
2023/09/20 02:55:12;;;;;;;11.82;2.90;;;;;;;;;;4926150;28;20154;-86
2023/09/20 02:57:38;;;;;;;11.70;3.05;;;;;;;;;;4923573;28;20046;-85
2023/09/20 03:00:15;;;;;;;9.10;3.50;;;;;;;;;;4948013;28;20086;-85
2023/09/20 03:02:48;;;;;;;11.27;3.20;;;;;;;;;;4934627;28;20608;-86
2023/09/20 03:05:15;;;;;;;11.43;3.50;;;;;;;;;;4941491;28;20119;-86
2023/09/20 03:07:42;;;;;;;10.13;3.97;;;;;;;;;;4936467;28;20035;-84
2023/09/20 03:10:12;;;;;;;9.48;3.17;;;;;;;;;;4928249;28;20091;-85
2023/09/20 03:12:39;;;;;;;10.25;3.40;;;;;;;;;;4943966;29;20546;-84
2023/09/20 03:15:09;;;;;;;7.95;3.17;;;;;;;;;;4926563;28;20474;-85
2023/09/20 03:17:36;;;;;;;9.88;3.45;;;;;;;;;;4955139;28;20097;-84
2023/09/20 03:20:07;;;;;;;15.10;4.10;;;;;;;;;;4925444;28;20038;-85
2023/09/20 03:22:36;;;;;;;11.43;3.10;;;;;;;;;;4927033;28;20114;-85
2023/09/20 03:25:04;;;;;;;11.45;3.17;;;;;;;;;;4962508;28;20071;-85
2023/09/20 03:27:30;;;;;;;10.07;3.20;;;;;;;;;;4938550;28;20055;-84
2023/09/20 03:29:57;;;;;;;10.95;3.55;;;;;;;;;;4938751;28;20047;-85
2023/09/20 03:32:23;;;;;;;12.90;3.25;;;;;;;;;;4942187;28;20043;-84
2023/09/20 03:34:50;;;;;;;11.73;3.70;;;;;;;;;;4947353;28;20043;-84
2023/09/20 03:37:18;;;;;;;11.27;3.50;;;;;;;;;;4954640;28;20083;-85
2023/09/20 03:39:46;;;;;;;9.48;2.97;;;;;;;;;;4938762;28;20387;-85
2023/09/20 03:42:12;;;;;;;10.18;3.85;;;;;;;;;;4937378;29;20047;-85
2023/09/20 03:44:42;;;;;;;12.68;4.00;;;;;;;;;;4938637;28;20089;-84
2023/09/20 03:47:08;;;;;;;12.98;3.90;;;;;;;;;;4927486;28;20071;-84
2023/09/20 03:49:34;;;;;;;11.30;3.70;;;;;;;;;;4934783;28;20055;-84
2023/09/20 03:52:00;;;;;;;13.30;3.90;;;;;;;;;;4940664;28;20062;-83
2023/09/20 03:54:26;;;;;;;11.13;4.32;;;;;;;;;;4926830;29;20141;-85
2023/09/20 03:56:52;;;;;;;15.95;3.80;;;;;;;;;;4918622;29;20051;-85
2023/09/20 03:59:19;;;;;;;13.77;4.07;;;;;;;;;;4918668;29;20062;-85
2023/09/20 04:01:47;;;;;;;11.20;3.67;;;;;;;;;;4908373;29;20126;-84
2023/09/20 04:04:16;;;;;;;12.80;3.80;;;;;;;;;;4917121;29;20059;-85
2023/09/20 04:06:43;;;;;;;12.23;3.90;;;;;;;;;;4919272;29;20052;-84
2023/09/20 04:09:11;;;;;;;12.05;3.85;;;;;;;;;;4914672;29;20044;-84
2023/09/20 04:11:38;;;;;;;10.55;3.55;;;;;;;;;;4916889;29;20044;-84
2023/09/20 04:14:06;;;;;;;14.10;3.63;;;;;;;;;;4921175;29;20054;-85
2023/09/20 04:16:32;;;;;;;18.87;3.93;;;;;;;;;;4904997;29;20240;-85
2023/09/20 04:18:58;;;;;;;12.32;3.72;;;;;;;;;;4925898;29;20054;-84
2023/09/20 04:21:24;;;;;;;13.85;3.40;;;;;;;;;;4917827;29;20062;-84
2023/09/20 04:23:50;;;;;;;12.40;3.70;;;;;;;;;;4901052;29;20118;-84
2023/09/20 04:26:16;;;;;;;12.52;3.60;;;;;;;;;;4925334;29;20166;-84
2023/09/20 04:28:42;;;;;;;11.27;4.32;;;;;;;;;;4907355;29;20786;-85
2023/09/20 04:31:09;;;;;;;13.88;4.03;;;;;;;;;;4918920;29;20517;-85
2023/09/20 04:33:36;;;;;;;8.85;3.60;;;;;;;;;;4923029;29;20118;-86
2023/09/20 04:36:04;;;;;;;13.73;4.28;;;;;;;;;;4901749;29;20106;-83
2023/09/20 04:38:30;;;;;;;;;;;;;;;;;;4926717;29;20057;-84
2023/09/20 04:40:56;;;;;;;9.63;3.35;;;;;;;;;;4908284;29;20315;-84
2023/09/20 04:43:22;;;;;;;11.50;4.05;;;;;;;;;;4914415;29;20070;-84
2023/09/20 04:45:48;;;;;;;13.07;4.20;;;;;;;;;;4942610;29;20046;-84
2023/09/20 04:48:14;;;;;;;13.05;3.90;;;;;;;;;;4914193;29;20051;-85
2023/09/20 04:50:40;;;;;;;15.82;3.88;;;;;;;;;;4925150;29;20536;-84
2023/09/20 04:53:06;;;;;;;14.93;3.78;;;;;;;;;;4920281;29;20079;-85
2023/09/20 04:55:34;;;;;;;13.80;4.03;;;;;;;;;;4918982;29;20066;-85
2023/09/20 04:58:00;;;;;;;13.17;4.00;;;;;;;;;;4923630;29;20055;-84
2023/09/20 05:00:33;;;;;;;12.98;3.60;;;;;;;;;;4924488;29;20040;-84
2023/09/20 05:03:03;;;;;;;10.98;3.72;;;;;;;;;;4921488;29;20055;-85
2023/09/20 05:05:38;;;;;;;13.07;4.07;;;;;;;;;;4935168;29;20051;-86
2023/09/20 05:08:04;;;;;;;14.88;4.13;;;;;;;;;;4941205;29;20165;-84
2023/09/20 05:10:30;;;;;;;14.75;4.00;;;;;;;;;;4941896;28;20700;-85
2023/09/20 05:12:56;;;;;;;12.02;3.80;;;;;;;;;;4932646;29;20077;-85
2023/09/20 05:15:23;;;;;;;12.60;3.90;;;;;;;;;;4916004;29;20058;-86
2023/09/20 05:17:49;;;;;;;13.40;4.47;;;;;;;;;;4940677;29;20534;-88
2023/09/20 05:20:16;;;;;;;12.15;4.40;;;;;;;;;;4923170;29;20051;-84
2023/09/20 05:22:42;;;;;;;12.10;4.00;;;;;;;;;;4923776;29;20063;-84
2023/09/20 05:25:09;;;;;;;9.15;3.90;;;;;;;;;;4920005;29;20451;-84
2023/09/20 05:27:35;;;;;;;12.05;3.85;;;;;;;;;;4898524;29;20051;-85
2023/09/20 05:30:01;;;;;;;11.15;4.05;;;;;;;;;;4921590;29;20590;-84
2023/09/20 05:32:27;;;;;;;11.63;3.70;;;;;;;;;;4919721;29;20710;-85
2023/09/20 05:34:53;;;;;;;13.02;3.80;;;;;;;;;;4926327;29;20051;-84
2023/09/20 05:37:19;;;;;;;14.00;3.92;;;;;;;;;;4921536;29;20097;-84
2023/09/20 05:39:48;;;;;;;13.35;3.90;;;;;;;;;;4912162;29;20044;-84
2023/09/20 05:42:14;;;;;;;10.75;3.63;;;;;;;;;;4909090;29;20631;-85
2023/09/20 05:44:40;;;;;;;10.32;3.80;;;;;;;;;;4893601;29;20045;-84
2023/09/20 05:47:09;;;;;;;13.60;4.47;;;;;;;;;;4919906;29;20050;-84
2023/09/20 05:49:35;;;;;;;12.20;4.05;;;;;;;;;;4925009;29;20826;-85
2023/09/20 05:52:05;;;;;;;11.68;3.75;;;;;;;;;;4919724;29;20062;-85
2023/09/20 05:54:31;;;;;;;14.13;3.55;;;;;;;;;;4921092;29;20154;-84
2023/09/20 05:56:59;;;;;;;9.57;3.92;;;;;;;;;;4919309;29;20043;-84
2023/09/20 05:59:26;;;;;;;11.93;3.75;;;;;;;;;;4913362;29;20130;-84
2023/09/20 06:01:52;;;;;;;12.95;3.50;;;;;;;;;;4896844;29;20139;-84
2023/09/20 06:04:19;;;;;;;12.82;3.85;;;;;;;;;;4932521;29;20086;-84
2023/09/20 06:06:45;;;;;;;11.45;3.63;;;;;;;;;;4930900;29;20176;-82
2023/09/20 06:09:11;;;;;;;12.80;3.63;;;;;;;;;;4925965;28;20054;-83
2023/09/20 06:11:37;;;;;;;9.27;3.53;;;;;;;;;;4920760;29;20558;-83
2023/09/20 06:14:05;;;;;;;10.60;3.30;;;;;;;;;;4934318;29;20043;-83
2023/09/20 06:16:31;;;;;;;9.38;3.40;;;;;;;;;;4937480;29;20492;-82
2023/09/20 06:18:57;;;;;;;8.23;3.10;;;;;;;;;;4901442;29;20048;-84
2023/09/20 06:21:23;;;;;;;12.27;3.40;;;;;;;;;;4925068;29;20128;-82
2023/09/20 06:23:49;;;;;;;10.63;3.50;;;;;;;;;;4922393;29;20047;-82
2023/09/20 06:26:16;;;;;;;10.65;3.22;;;;;;;;;;4919328;29;20106;-83
2023/09/20 06:28:42;;;;;;;9.10;3.28;;;;;;;;;;4921946;29;20648;-82
2023/09/20 06:31:12;;;;;;;9.13;3.20;;;;;;;;;;4908062;29;20055;-82
2023/09/20 06:33:39;;;;;;;8.15;3.25;;;;;;;;;;4920726;29;20043;-83
2023/09/20 06:36:04;;;;;;;11.27;3.40;;;;;;;;;;4912688;28;20743;-83
2023/09/20 06:38:34;;;;;;;10.18;3.45;;;;;;;;;;4919627;29;20050;-82
2023/09/20 06:41:00;;;;;;;8.95;3.20;;;;;;;;;;4920292;29;20891;-84
2023/09/20 06:43:27;;;;;;;8.73;3.10;;;;;;;;;;4913023;28;20050;-85
2023/09/20 06:45:53;;;;;;;9.52;3.40;;;;;;;;;;4913998;29;20097;-85
2023/09/20 06:48:22;;;;;;;7.45;3.30;;;;;;;;;;4915707;29;20581;-84
2023/09/20 06:50:55;;;;;;;9.50;3.25;;;;;;;;;;4917334;29;21292;-85
2023/09/20 06:53:23;;;;;;;9.70;3.50;;;;;;;;;;4915357;28;20126;-85
2023/09/20 06:55:50;;;;;;;11.48;3.38;;;;;;;;;;4917210;29;20415;-84
2023/09/20 06:58:16;;;;;;;9.82;3.30;;;;;;;;;;4910608;29;20513;-85
2023/09/20 07:00:42;;;;;;;6.80;3.10;;;;;;;;;;4915157;29;20106;-84
2023/09/20 07:03:08;;;;;;;9.85;3.67;;;;;;;;;;4915893;29;20070;-85
2023/09/20 07:05:35;;;;;;;9.02;3.72;;;;;;;;;;4915168;29;20047;-84
2023/09/20 07:08:01;;;;;;;7.78;3.28;;;;;;;;;;4916583;29;20055;-85
2023/09/20 07:10:29;;;;;;;10.07;3.55;;;;;;;;;;4913552;29;20043;-86
2023/09/20 07:12:55;;;;;;;9.13;3.85;;;;;;;;;;4901507;29;20055;-84
2023/09/20 07:15:25;;;;;;;10.65;4.10;;;;;;;;;;4910853;28;20415;-86
2023/09/20 07:18:11;;;;;;;9.90;3.45;;;;;;;;;;4911967;29;20051;-85
2023/09/20 07:20:39;;;;;;;9.27;3.50;;;;;;;;;;4899996;29;20047;-85
2023/09/20 07:23:05;;;;;;;10.40;3.72;;;;;;;;;;4919273;29;20579;-85
2023/09/20 07:25:35;;;;;;;7.63;3.13;;;;;;;;;;4926696;28;20491;-84
2023/09/20 07:28:04;;;;;;;12.57;3.70;;;;;;;;;;4917689;29;20055;-85
2023/09/20 07:30:39;;;;;;;;;;;;;;;;;;4910622;29;20043;-85
2023/09/20 07:33:14;;;;;;;9.30;3.53;;;;;;;;;;4898101;28;19974;-86
2023/09/20 07:35:47;;;;;;;8.25;3.45;;;;;;;;;;4913703;29;20076;-85
2023/09/20 07:38:25;;;;;;;10.95;3.50;;;;;;;;;;4913734;29;20512;-85
2023/09/20 07:40:51;;;;;;;10.80;3.50;;;;;;;;;;4899786;29;20508;-84
2023/09/20 07:43:18;;;;;;;9.82;3.65;;;;;;;;;;4914724;28;20083;-85
2023/09/20 07:45:44;;;;;;;10.55;3.40;;;;;;;;;;4911508;29;20043;-84
2023/09/20 07:48:12;;;;;;;12.50;3.33;;;;;;;;;;4915404;29;20039;-83
2023/09/20 07:50:41;;;;;;;12.63;3.72;;;;;;;;;;4931793;28;20099;-84
2023/09/20 07:53:11;;;;;;;10.70;3.60;;;;;;;;;;4912705;29;20146;-84
2023/09/20 07:55:49;;;;;;;9.40;3.63;;;;;;;;;;4904882;29;20059;-84
2023/09/20 07:58:15;;;;;;;;;;;;;;;;;;4917242;29;20439;-85
2023/09/20 08:00:42;;;;;;;8.98;4.00;;;;;;;;;;4915996;29;20013;-84
2023/09/20 08:03:09;;;;;;;8.57;3.65;;;;;;;;;;4910268;29;20461;-85
2023/09/20 08:05:35;;;;;;;9.85;3.53;;;;;;;;;;4927560;28;20253;-85
2023/09/20 08:08:01;;;;;;;9.77;3.40;;;;;;;;;;4909317;29;20055;-86
2023/09/20 08:10:27;;;;;;;9.00;3.80;;;;;;;;;;4897165;29;20052;-85
2023/09/20 08:12:53;;;;;;;7.25;3.33;;;;;;;;;;4917028;29;20134;-84
2023/09/20 08:15:20;;;;;;;9.43;3.30;;;;;;;;;;4914149;28;20447;-84
2023/09/20 08:20:37;;;;;;;8.90;3.67;;;;;;;;;;4906764;29;20079;-84
2023/09/20 09:01:37;;;;;;;8.48;3.35;;;;;;;;;;4910286;29;20059;-85
2023/09/20 09:04:10;;;;;;;9.55;3.05;;;;;;;;;;4913334;29;20070;-84
2023/09/20 09:06:36;;;;;;;8.68;3.45;;;;;;;;;;4897192;29;20042;-85
2023/09/20 09:09:02;;;;;;;7.95;2.97;;;;;;;;;;4910872;29;20552;-85
2023/09/20 09:11:29;;;;;;;9.13;3.20;;;;;;;;;;4911704;28;20043;-85
2023/09/20 09:13:58;;;;;;;6.38;3.08;;;;;;;;;;4912958;29;20404;-85
2023/09/20 09:16:25;;;;;;;9.77;3.40;;;;;;;;;;4930402;29;20582;-85
2023/09/20 09:18:51;;;;;;;8.25;2.72;;;;;;;;;;4918109;29;20075;-86
2023/09/20 09:21:18;;;;;;;9.13;3.22;;;;;;;;;;4914701;28;20039;-85
2023/09/20 09:23:46;;;;;;;6.80;2.67;;;;;;;;;;4896544;29;20075;-85
2023/09/20 09:26:12;;;;;;;8.65;3.05;;;;;;;;;;4915380;29;20089;-86
2023/09/20 09:28:40;;;;;;;9.48;3.20;;;;;;;;;;4899801;29;20035;-85
2023/09/20 09:31:08;;;;;;;7.47;3.03;;;;;;;;;;4897502;29;20114;-85
2023/09/20 09:33:35;;;;;;;7.68;2.65;;;;;;;;;;4917289;28;20043;-86
2023/09/20 09:36:02;;;;;;;8.55;3.00;;;;;;;;;;4910847;29;20478;-85
2023/09/20 09:38:28;;;;;;;8.02;3.20;;;;;;;;;;4909978;29;20051;-85
2023/09/20 09:40:58;;;;;;;7.20;2.85;;;;;;;;;;4909511;29;20138;-86
2023/09/20 09:43:25;;;;;;;8.15;2.80;;;;;;;;;;4909789;28;20067;-85
2023/09/20 09:45:55;;;;;;;11.10;3.20;;;;;;;;;;4915827;29;20093;-85
2023/09/20 09:48:24;;;;;;;7.30;2.90;;;;;;;;;;4918044;29;20625;-84
2023/09/20 09:50:50;;;;;;;7.30;2.90;;;;;;;;;;4919114;29;20051;-84
2023/09/20 09:53:20;;;;;;;7.78;2.58;;;;;;;;;;4914861;28;20535;-85
2023/09/20 09:55:47;;;;;;;7.72;2.50;;;;;;;;;;4905608;29;20050;-84
2023/09/20 09:58:13;;;;;;;7.25;2.70;;;;;;;;;;4918131;29;20051;-84
2023/09/20 10:00:40;;;;;;;6.70;2.70;;;;;;;;;;4919019;29;20047;-85
2023/09/20 10:03:25;;;;;;;4.50;2.30;;;;;;;;;;4916353;29;20138;-84
2023/09/20 10:05:53;;;;;;;7.20;2.53;;;;;;;;;;4903271;29;20842;-84
2023/09/20 10:08:21;;;;;;;5.85;2.30;;;;;;;;;;4921872;29;20608;-84
2023/09/20 10:10:47;;;;;;;6.97;2.50;;;;;;;;;;4911703;29;20900;-81
2023/09/20 10:13:13;;;;;;;6.32;2.70;;;;;;;;;;4918073;28;20490;-83
2023/09/20 10:15:43;;;;;;;7.50;2.33;;;;;;;;;;4935559;28;20043;-83
2023/09/20 10:18:09;;;;;;;6.10;2.80;;;;;;;;;;4918373;29;20909;-84
2023/09/20 10:20:54;;;;;;;6.38;2.30;;;;;;;;;;4918668;29;20097;-83
2023/09/20 10:23:22;;;;;;;6.20;2.47;;;;;;;;;;4897931;28;20449;-84
2023/09/20 10:25:49;;;;;;;6.45;2.30;;;;;;;;;;4922080;29;20043;-83
2023/09/20 10:28:17;;;;;;;8.02;2.20;;;;;;;;;;4911987;29;20039;-84
2023/09/20 10:31:03;;;;;;;7.95;2.83;;;;;;;;;;4913065;29;20172;-85
2023/09/20 10:33:48;;;;;;;7.75;3.35;;;;;;;;;;4913968;28;20186;-82
2023/09/20 10:36:23;;;;;;;7.90;2.83;;;;;;;;;;4912100;29;20646;-83
2023/09/20 10:38:49;;;;;;;8.30;2.75;;;;;;;;;;4896150;29;20765;-84
2023/09/20 10:41:16;;;;;;;5.55;2.35;;;;;;;;;;4907720;28;20067;-85
2023/09/20 10:43:44;;;;;;;6.78;2.28;;;;;;;;;;4915004;29;20411;-83
2023/09/20 10:46:09;;;;;;;8.75;2.78;;;;;;;;;;4911153;29;20514;-85
2023/09/20 10:48:39;;;;;;;5.15;2.50;;;;;;;;;;4907703;29;20055;-84
2023/09/20 10:51:07;;;;;;;4.25;2.42;;;;;;;;;;4912173;29;20040;-85
2023/09/20 10:53:55;;;;;;;5.15;1.83;;;;;;;;;;4898463;28;20504;-83
2023/09/20 10:56:41;;;;;;;6.32;2.20;;;;;;;;;;4911232;29;20059;-84
2023/09/20 10:59:09;;;;;;;5.28;2.20;;;;;;;;;;4895275;29;20043;-86
2023/09/20 11:01:36;;;;;;;7.93;2.10;;;;;;;;;;4925383;29;20048;-84
2023/09/20 11:04:05;;;;;;;4.72;2.15;;;;;;;;;;4907835;29;20048;-84
2023/09/20 11:06:32;;;;;;;6.07;2.00;;;;;;;;;;4907707;29;20051;-83
2023/09/20 11:08:59;;;;;;;5.25;2.38;;;;;;;;;;4898415;29;20464;-84
2023/09/20 11:11:28;;;;;;;7.82;2.00;;;;;;;;;;4926350;29;20534;-84
2023/09/20 11:13:54;;;;;;;7.43;2.35;;;;;;;;;;4916818;29;20127;-83
2023/09/20 11:16:21;;;;;;;5.95;1.90;;;;;;;;;;4904412;29;20039;-84
2023/09/20 11:18:48;;;;;;;5.10;2.08;;;;;;;;;;4921935;29;20059;-83
2023/09/20 11:21:14;;;;;;;5.15;1.90;;;;;;;;;;4920752;29;20520;-83
2023/09/20 11:23:40;;;;;;;6.88;2.03;;;;;;;;;;4912939;29;20036;-84
2023/09/20 11:26:08;;;;;;;4.80;2.20;;;;;;;;;;4914038;29;20118;-84
2023/09/20 11:28:34;;;;;;;4.30;1.98;;;;;;;;;;4932094;29;20219;-83
2023/09/20 11:31:00;;;;;;;6.68;2.00;;;;;;;;;;4916489;29;20063;-84
2023/09/20 11:33:30;;;;;;;5.90;1.80;;;;;;;;;;4932176;29;20074;-84
2023/09/20 11:35:56;;;;;;;4.88;1.80;;;;;;;;;;4932289;29;20051;-84
2023/09/20 11:38:22;;;;;;;6.43;1.92;;;;;;;;;;4904361;29;20047;-84
2023/09/20 11:40:48;;;;;;;7.30;1.95;;;;;;;;;;4918838;29;20102;-83
2023/09/20 11:43:21;;;;;;;3.17;1.65;;;;;;;;;;4907592;29;20035;-83
2023/09/20 11:45:47;;;;;;;5.53;1.90;;;;;;;;;;4914804;29;20035;-85
2023/09/20 11:48:14;;;;;;;3.47;1.90;;;;;;;;;;4902173;29;20039;-83
2023/09/20 11:50:44;;;;;;;5.38;1.80;;;;;;;;;;4908834;29;20058;-85
2023/09/20 11:53:18;;;;;;;5.55;2.10;;;;;;;;;;4916820;29;20528;-84
2023/09/20 11:55:45;;;;;;;5.10;2.00;;;;;;;;;;4900967;29;20534;-84
2023/09/20 11:58:14;;;;;;;5.68;1.92;;;;;;;;;;4907932;29;20036;-84
2023/09/20 12:00:43;;;;;;;5.43;2.20;;;;;;;;;;4910566;29;20059;-82
2023/09/20 12:03:09;;;;;;;4.18;2.05;;;;;;;;;;4910510;29;20043;-83
2023/09/20 12:05:36;;;;;;;5.68;2.08;;;;;;;;;;4914690;29;20135;-83
2023/09/20 12:08:02;;;;;;;6.13;2.15;;;;;;;;;;4895609;29;20483;-83
2023/09/20 12:10:29;;;;;;;6.80;2.33;;;;;;;;;;4913016;29;20492;-83
2023/09/20 12:12:56;;;;;;;6.55;2.50;;;;;;;;;;4910327;28;20039;-83
2023/09/20 12:15:23;;;;;;;8.55;2.40;;;;;;;;;;4913953;29;20385;-83
2023/09/20 12:17:55;;;;;;;3.88;2.38;;;;;;;;;;4913655;29;20102;-83
2023/09/20 12:20:29;;;;;;;5.15;2.35;;;;;;;;;;4909642;29;20183;-83
2023/09/20 12:23:00;;;;;;;6.90;2.35;;;;;;;;;;4927768;28;20051;-83
2023/09/20 12:25:30;;;;;;;4.32;2.53;;;;;;;;;;4891524;29;20044;-84
2023/09/20 12:27:56;;;;;;;7.68;2.83;;;;;;;;;;4924392;29;20148;-83
2023/09/20 12:30:27;;;;;;;7.07;2.60;;;;;;;;;;4924993;28;20323;-83
2023/09/20 12:32:53;;;;;;;5.65;2.50;;;;;;;;;;4928155;28;20047;-83
2023/09/20 12:35:20;;;;;;;6.13;2.50;;;;;;;;;;4929491;28;20097;-84
2023/09/20 12:37:47;;;;;;;6.63;2.90;;;;;;;;;;4928033;28;20044;-84
2023/09/20 12:40:13;;;;;;;6.32;3.13;;;;;;;;;;4929551;28;20388;-84
2023/09/20 12:42:39;;;;;;;8.98;2.80;;;;;;;;;;4907128;29;20052;-84
2023/09/20 12:45:08;;;;;;;5.60;2.70;;;;;;;;;;4914062;28;20039;-83
2023/09/20 12:47:35;;;;;;;6.43;2.85;;;;;;;;;;4894755;29;20396;-84
2023/09/20 12:50:01;;;;;;;7.95;2.65;;;;;;;;;;4909460;29;20047;-83
2023/09/20 12:52:28;;;;;;;6.15;3.08;;;;;;;;;;4901297;29;20047;-84
2023/09/20 12:54:54;;;;;;;4.40;2.83;;;;;;;;;;4913385;28;20086;-83
2023/09/20 12:57:24;;;;;;;6.85;2.97;;;;;;;;;;4908485;29;20050;-83
2023/09/20 12:59:50;;;;;;;5.82;2.60;;;;;;;;;;4909698;29;20278;-84
2023/09/20 13:02:16;;;;;;;6.22;2.60;;;;;;;;;;4901418;29;20058;-84
2023/09/20 13:04:42;;;;;;;9.02;2.72;;;;;;;;;;4899728;29;20594;-85
2023/09/20 13:07:08;;;;;;;7.55;3.00;;;;;;;;;;4917245;29;20097;-83
2023/09/20 13:09:34;;;;;;;6.82;2.95;;;;;;;;;;4930072;28;20405;-83
2023/09/20 13:12:01;;;;;;;10.60;2.90;;;;;;;;;;4911877;29;20054;-83
2023/09/20 13:14:30;;;;;;;7.43;2.85;;;;;;;;;;4909681;29;20736;-85
2023/09/20 13:16:56;;;;;;;7.63;3.08;;;;;;;;;;4911980;28;20075;-83
2023/09/20 13:19:22;;;;;;;5.82;3.03;;;;;;;;;;4901654;29;20038;-84
2023/09/20 13:21:48;;;;;;;6.57;3.03;;;;;;;;;;4910375;29;20559;-84
2023/09/20 13:24:15;;;;;;;4.78;2.92;;;;;;;;;;4912657;29;20523;-83
2023/09/20 13:26:43;;;;;;;5.68;2.70;;;;;;;;;;4913254;29;20078;-84
2023/09/20 13:29:11;;;;;;;5.13;2.60;;;;;;;;;;4909519;29;20046;-84
2023/09/20 13:31:40;;;;;;;6.85;2.53;;;;;;;;;;4912288;29;20051;-85
2023/09/20 13:34:15;;;;;;;7.60;2.92;;;;;;;;;;4932212;28;20503;-83
2023/09/20 13:36:44;;;;;;;5.78;2.38;;;;;;;;;;4908589;29;20070;-82
2023/09/20 13:39:10;;;;;;;4.90;2.80;;;;;;;;;;4930181;28;20051;-79
2023/09/20 13:41:36;;;;;;;5.88;2.63;;;;;;;;;;4910087;29;20039;-82
2023/09/20 13:44:03;;;;;;;5.82;2.70;;;;;;;;;;4909591;29;20055;-81
2023/09/20 13:46:29;;;;;;;6.45;2.55;;;;;;;;;;4911530;29;20051;-83
2023/09/20 13:48:55;;;;;;;4.47;2.20;;;;;;;;;;4907366;28;20035;-82
2023/09/20 13:51:22;;;;;;;7.90;2.53;;;;;;;;;;4907782;28;20053;-80
2023/09/20 13:53:52;;;;;;;5.28;2.20;;;;;;;;;;4929738;28;20051;-80
2023/09/20 13:56:19;;;;;;;5.28;2.50;;;;;;;;;;4913757;29;20484;-82
2023/09/20 13:58:45;;;;;;;10.57;2.75;;;;;;;;;;4897272;28;20036;-82
2023/09/20 14:01:11;;;;;;;9.25;3.40;;;;;;;;;;4925042;28;20504;-82
2023/09/20 14:03:38;;;;;;;6.47;2.63;;;;;;;;;;4928271;28;20041;-79
2023/09/20 14:06:07;;;;;;;5.30;2.83;;;;;;;;;;4903761;29;20051;-80
2023/09/20 14:08:33;;;;;;;4.57;2.47;;;;;;;;;;4894508;29;20059;-81
2023/09/20 14:10:59;;;;;;;7.43;2.50;;;;;;;;;;4903077;28;20455;-81
2023/09/20 14:13:25;;;;;;;4.22;2.10;;;;;;;;;;4908010;29;20043;-79
2023/09/20 14:15:54;;;;;;;4.05;2.20;;;;;;;;;;4905500;29;20047;-78
2023/09/20 14:18:19;;;;;;;;;;;;;;;;;;4912499;29;20141;-80
2023/09/20 14:20:50;;;;;;;6.32;2.28;;;;;;;;;;4904247;28;19997;-79
2023/09/20 14:23:16;;;;;;;5.13;2.20;;;;;;;;;;4905779;29;20222;-78
2023/09/20 14:25:42;;;;;;;6.38;2.22;;;;;;;;;;4906865;29;20075;-80
2023/09/20 14:28:08;;;;;;;4.75;2.20;;;;;;;;;;4907628;29;20039;-78
2023/09/20 14:30:34;;;;;;;5.03;2.03;;;;;;;;;;4907599;29;20043;-79
2023/09/20 14:33:01;;;;;;;4.05;2.00;;;;;;;;;;4893158;28;20047;-79
2023/09/20 14:35:27;;;;;;;4.45;2.25;;;;;;;;;;4905978;29;20216;-80
2023/09/20 14:37:53;;;;;;;5.50;2.08;;;;;;;;;;4906219;29;20043;-83
2023/09/20 14:40:21;;;;;;;4.80;2.03;;;;;;;;;;4906437;29;20047;-80
2023/09/20 14:42:51;;;;;;;5.38;2.03;;;;;;;;;;4923036;28;20063;-82
2023/09/20 14:45:22;;;;;;;4.82;1.90;;;;;;;;;;4908158;29;20051;-81
2023/09/20 14:47:49;;;;;;;4.32;1.65;;;;;;;;;;4901351;29;20051;-79
2023/09/20 14:50:15;;;;;;;4.90;2.08;;;;;;;;;;4925456;28;20566;-80
2023/09/20 14:52:42;;;;;;;3.83;1.67;;;;;;;;;;4896930;29;20130;-81
2023/09/20 14:55:14;;;;;;;4.85;1.98;;;;;;;;;;4928592;28;20059;-79
2023/09/20 14:57:43;;;;;;;6.68;1.77;;;;;;;;;;4914022;29;20344;-79
2023/09/20 15:00:16;;;;;;;6.85;2.17;;;;;;;;;;4931311;28;20043;-80
2023/09/20 15:02:43;;;;;;;5.80;2.00;;;;;;;;;;4911558;29;20090;-79
2023/09/20 15:05:11;;;;;;;5.40;1.95;;;;;;;;;;4929835;28;20787;-79
2023/09/20 15:07:36;;;;;;;6.00;1.90;;;;;;;;;;4912199;29;21350;-80
2023/09/20 15:10:09;;;;;;;3.85;2.08;;;;;;;;;;4914541;29;20047;-82
2023/09/20 15:12:36;;;;;;;5.35;2.22;;;;;;;;;;4912124;29;20516;-81
2023/09/20 15:15:02;;;;;;;7.75;2.22;;;;;;;;;;4914704;28;20043;-78
2023/09/20 15:17:28;;;;;;;4.75;2.03;;;;;;;;;;4914092;29;20102;-83
2023/09/20 15:19:54;;;;;;;4.53;1.80;;;;;;;;;;4913436;29;20559;-80
2023/09/20 15:22:29;;;;;;;5.10;2.00;;;;;;;;;;4929111;28;20472;-81